sensor_id;sensor_type;location;lat;lon;timestamp;P1;durP1;ratioP1;P2;durP2;ratioP2
11677;SDS011;5895;41.950;24.372;2023-07-02T00:01:54;7.07;;;5.57;;
11677;SDS011;5895;41.950;24.372;2023-07-02T00:04:21;7.45;;;5.72;;
11677;SDS011;5895;41.950;24.372;2023-07-02T00:06:48;8.88;;;5.78;;
11677;SDS011;5895;41.950;24.372;2023-07-02T00:09:15;7.32;;;5.88;;
11677;SDS011;5895;41.950;24.372;2023-07-02T00:11:43;5.95;;;5.32;;
11677;SDS011;5895;41.950;24.372;2023-07-02T00:14:12;9.05;;;5.68;;
11677;SDS011;5895;41.950;24.372;2023-07-02T00:16:42;8.18;;;5.60;;
11677;SDS011;5895;41.950;24.372;2023-07-02T00:19:11;6.85;;;5.90;;
11677;SDS011;5895;41.950;24.372;2023-07-02T00:21:40;7.57;;;6.55;;
11677;SDS011;5895;41.950;24.372;2023-07-02T00:24:08;7.82;;;5.57;;
11677;SDS011;5895;41.950;24.372;2023-07-02T00:26:36;7.20;;;6.00;;
11677;SDS011;5895;41.950;24.372;2023-07-02T00:29:05;7.93;;;5.85;;
11677;SDS011;5895;41.950;24.372;2023-07-02T00:31:33;7.75;;;6.78;;
11677;SDS011;5895;41.950;24.372;2023-07-02T00:34:02;9.15;;;6.53;;
11677;SDS011;5895;41.950;24.372;2023-07-02T00:36:30;9.20;;;5.82;;
11677;SDS011;5895;41.950;24.372;2023-07-02T00:38:58;9.02;;;6.70;;
11677;SDS011;5895;41.950;24.372;2023-07-02T00:41:26;7.78;;;5.72;;
11677;SDS011;5895;41.950;24.372;2023-07-02T00:43:53;9.73;;;5.85;;
11677;SDS011;5895;41.950;24.372;2023-07-02T00:46:21;6.30;;;5.60;;
11677;SDS011;5895;41.950;24.372;2023-07-02T00:48:50;8.25;;;6.10;;
11677;SDS011;5895;41.950;24.372;2023-07-02T00:51:20;6.82;;;6.05;;
11677;SDS011;5895;41.950;24.372;2023-07-02T00:53:50;7.57;;;6.25;;
11677;SDS011;5895;41.950;24.372;2023-07-02T00:56:18;8.35;;;6.82;;
11677;SDS011;5895;41.950;24.372;2023-07-02T00:58:46;8.43;;;6.07;;
11677;SDS011;5895;41.950;24.372;2023-07-02T01:01:16;11.73;;;6.00;;
11677;SDS011;5895;41.950;24.372;2023-07-02T01:03:51;10.82;;;6.25;;
11677;SDS011;5895;41.950;24.372;2023-07-02T01:06:24;9.65;;;6.28;;
11677;SDS011;5895;41.950;24.372;2023-07-02T01:08:53;7.10;;;6.25;;
11677;SDS011;5895;41.950;24.372;2023-07-02T01:11:23;10.98;;;6.15;;
11677;SDS011;5895;41.950;24.372;2023-07-02T01:13:55;10.30;;;5.82;;
11677;SDS011;5895;41.950;24.372;2023-07-02T01:16:25;9.50;;;6.68;;
11677;SDS011;5895;41.950;24.372;2023-07-02T01:18:56;11.55;;;6.78;;
11677;SDS011;5895;41.950;24.372;2023-07-02T01:21:25;10.20;;;7.07;;
11677;SDS011;5895;41.950;24.372;2023-07-02T01:23:53;9.02;;;7.03;;
11677;SDS011;5895;41.950;24.372;2023-07-02T01:26:20;9.60;;;7.10;;
11677;SDS011;5895;41.950;24.372;2023-07-02T01:28:47;8.63;;;6.70;;
11677;SDS011;5895;41.950;24.372;2023-07-02T01:31:16;7.50;;;6.38;;
11677;SDS011;5895;41.950;24.372;2023-07-02T01:33:43;12.13;;;6.70;;
11677;SDS011;5895;41.950;24.372;2023-07-02T01:36:10;10.40;;;6.65;;
11677;SDS011;5895;41.950;24.372;2023-07-02T01:38:39;8.32;;;6.75;;
11677;SDS011;5895;41.950;24.372;2023-07-02T01:41:06;11.80;;;7.07;;
11677;SDS011;5895;41.950;24.372;2023-07-02T01:43:34;8.98;;;6.40;;
11677;SDS011;5895;41.950;24.372;2023-07-02T01:46:01;9.18;;;6.28;;
11677;SDS011;5895;41.950;24.372;2023-07-02T01:48:28;9.98;;;6.50;;
11677;SDS011;5895;41.950;24.372;2023-07-02T01:50:55;9.75;;;6.47;;
11677;SDS011;5895;41.950;24.372;2023-07-02T01:53:22;8.95;;;6.55;;
11677;SDS011;5895;41.950;24.372;2023-07-02T01:55:51;8.90;;;7.03;;
11677;SDS011;5895;41.950;24.372;2023-07-02T01:58:18;9.68;;;6.50;;
11677;SDS011;5895;41.950;24.372;2023-07-02T02:00:45;12.23;;;7.00;;
11677;SDS011;5895;41.950;24.372;2023-07-02T02:03:12;8.15;;;6.47;;
11677;SDS011;5895;41.950;24.372;2023-07-02T02:05:40;8.07;;;6.72;;
11677;SDS011;5895;41.950;24.372;2023-07-02T02:08:07;8.85;;;6.38;;
11677;SDS011;5895;41.950;24.372;2023-07-02T02:10:34;7.68;;;6.30;;
11677;SDS011;5895;41.950;24.372;2023-07-02T02:13:03;10.25;;;5.85;;
11677;SDS011;5895;41.950;24.372;2023-07-02T02:15:30;8.43;;;6.55;;
11677;SDS011;5895;41.950;24.372;2023-07-02T02:17:57;9.13;;;5.90;;
11677;SDS011;5895;41.950;24.372;2023-07-02T02:20:24;12.85;;;6.38;;
11677;SDS011;5895;41.950;24.372;2023-07-02T02:22:52;9.20;;;5.43;;
11677;SDS011;5895;41.950;24.372;2023-07-02T02:25:19;7.53;;;6.00;;
11677;SDS011;5895;41.950;24.372;2023-07-02T02:27:46;10.98;;;6.40;;
11677;SDS011;5895;41.950;24.372;2023-07-02T02:30:15;11.65;;;6.38;;
11677;SDS011;5895;41.950;24.372;2023-07-02T02:32:42;8.00;;;5.97;;
11677;SDS011;5895;41.950;24.372;2023-07-02T02:35:09;10.23;;;7.28;;
11677;SDS011;5895;41.950;24.372;2023-07-02T02:37:37;7.95;;;6.07;;
11677;SDS011;5895;41.950;24.372;2023-07-02T02:40:06;11.77;;;7.40;;
11677;SDS011;5895;41.950;24.372;2023-07-02T02:42:34;9.20;;;6.50;;
11677;SDS011;5895;41.950;24.372;2023-07-02T02:45:01;8.82;;;6.32;;
11677;SDS011;5895;41.950;24.372;2023-07-02T02:47:30;8.10;;;5.80;;
11677;SDS011;5895;41.950;24.372;2023-07-02T02:49:59;7.57;;;5.88;;
11677;SDS011;5895;41.950;24.372;2023-07-02T02:52:26;9.10;;;6.28;;
11677;SDS011;5895;41.950;24.372;2023-07-02T02:54:53;9.20;;;6.00;;
11677;SDS011;5895;41.950;24.372;2023-07-02T02:57:20;12.95;;;7.03;;
11677;SDS011;5895;41.950;24.372;2023-07-02T02:59:48;10.07;;;6.82;;
11677;SDS011;5895;41.950;24.372;2023-07-02T03:02:15;10.13;;;6.93;;
11677;SDS011;5895;41.950;24.372;2023-07-02T03:04:43;10.73;;;6.18;;
11677;SDS011;5895;41.950;24.372;2023-07-02T03:07:11;8.35;;;6.78;;
11677;SDS011;5895;41.950;24.372;2023-07-02T03:09:38;8.43;;;6.38;;
11677;SDS011;5895;41.950;24.372;2023-07-02T03:12:05;11.27;;;7.55;;
11677;SDS011;5895;41.950;24.372;2023-07-02T03:14:33;7.72;;;6.13;;
11677;SDS011;5895;41.950;24.372;2023-07-02T03:17:00;10.40;;;6.28;;
11677;SDS011;5895;41.950;24.372;2023-07-02T03:19:28;9.63;;;6.55;;
11677;SDS011;5895;41.950;24.372;2023-07-02T03:21:57;8.10;;;5.57;;
11677;SDS011;5895;41.950;24.372;2023-07-02T03:24:24;9.13;;;6.57;;
11677;SDS011;5895;41.950;24.372;2023-07-02T03:26:51;12.93;;;6.38;;
11677;SDS011;5895;41.950;24.372;2023-07-02T03:29:18;7.82;;;6.00;;
11677;SDS011;5895;41.950;24.372;2023-07-02T03:31:46;9.82;;;6.97;;
11677;SDS011;5895;41.950;24.372;2023-07-02T03:34:13;10.43;;;6.75;;
11677;SDS011;5895;41.950;24.372;2023-07-02T03:36:40;7.07;;;5.95;;
11677;SDS011;5895;41.950;24.372;2023-07-02T03:39:09;10.25;;;7.13;;
11677;SDS011;5895;41.950;24.372;2023-07-02T03:41:36;9.45;;;7.40;;
11677;SDS011;5895;41.950;24.372;2023-07-02T03:44:03;8.88;;;7.10;;
11677;SDS011;5895;41.950;24.372;2023-07-02T03:46:31;9.77;;;6.85;;
11677;SDS011;5895;41.950;24.372;2023-07-02T03:48:58;10.52;;;6.88;;
11677;SDS011;5895;41.950;24.372;2023-07-02T03:51:25;10.15;;;7.68;;
11677;SDS011;5895;41.950;24.372;2023-07-02T03:53:52;9.95;;;6.88;;
11677;SDS011;5895;41.950;24.372;2023-07-02T03:56:21;9.77;;;7.05;;
11677;SDS011;5895;41.950;24.372;2023-07-02T03:58:48;10.32;;;6.90;;
11677;SDS011;5895;41.950;24.372;2023-07-02T04:01:15;9.20;;;7.00;;
11677;SDS011;5895;41.950;24.372;2023-07-02T04:03:47;11.02;;;7.03;;
11677;SDS011;5895;41.950;24.372;2023-07-02T04:18:26;10.95;;;8.07;;
11677;SDS011;5895;41.950;24.372;2023-07-02T04:20:54;12.05;;;8.73;;
11677;SDS011;5895;41.950;24.372;2023-07-02T04:23:22;12.20;;;9.80;;
11677;SDS011;5895;41.950;24.372;2023-07-02T04:25:49;12.60;;;9.20;;
11677;SDS011;5895;41.950;24.372;2023-07-02T04:28:17;12.20;;;8.68;;
11677;SDS011;5895;41.950;24.372;2023-07-02T04:30:44;12.43;;;9.52;;
11677;SDS011;5895;41.950;24.372;2023-07-02T04:33:15;11.80;;;10.13;;
11677;SDS011;5895;41.950;24.372;2023-07-02T04:35:44;11.30;;;8.77;;
11677;SDS011;5895;41.950;24.372;2023-07-02T04:38:11;11.50;;;7.38;;
11677;SDS011;5895;41.950;24.372;2023-07-02T04:40:39;12.77;;;8.68;;
11677;SDS011;5895;41.950;24.372;2023-07-02T04:43:10;11.10;;;7.75;;
11677;SDS011;5895;41.950;24.372;2023-07-02T04:45:37;11.23;;;7.25;;
11677;SDS011;5895;41.950;24.372;2023-07-02T04:48:05;9.63;;;7.53;;
11677;SDS011;5895;41.950;24.372;2023-07-02T04:50:33;12.13;;;7.57;;
11677;SDS011;5895;41.950;24.372;2023-07-02T04:53:02;12.43;;;10.75;;
11677;SDS011;5895;41.950;24.372;2023-07-02T04:55:29;12.00;;;9.02;;
11677;SDS011;5895;41.950;24.372;2023-07-02T04:57:56;10.48;;;9.05;;
11677;SDS011;5895;41.950;24.372;2023-07-02T05:00:24;12.95;;;9.38;;
11677;SDS011;5895;41.950;24.372;2023-07-02T05:02:51;11.13;;;8.52;;
11677;SDS011;5895;41.950;24.372;2023-07-02T05:05:18;10.70;;;8.45;;
11677;SDS011;5895;41.950;24.372;2023-07-02T05:07:46;11.52;;;8.25;;
11677;SDS011;5895;41.950;24.372;2023-07-02T05:10:15;11.35;;;9.25;;
11677;SDS011;5895;41.950;24.372;2023-07-02T05:12:42;17.10;;;12.70;;
11677;SDS011;5895;41.950;24.372;2023-07-02T05:15:10;14.88;;;11.25;;
11677;SDS011;5895;41.950;24.372;2023-07-02T05:17:38;13.75;;;11.32;;
11677;SDS011;5895;41.950;24.372;2023-07-02T05:20:06;13.20;;;10.75;;
11677;SDS011;5895;41.950;24.372;2023-07-02T05:22:35;44.42;;;31.25;;
11677;SDS011;5895;41.950;24.372;2023-07-02T05:25:02;41.08;;;28.02;;
11677;SDS011;5895;41.950;24.372;2023-07-02T05:27:31;17.13;;;11.52;;
11677;SDS011;5895;41.950;24.372;2023-07-02T05:29:58;13.75;;;7.72;;
11677;SDS011;5895;41.950;24.372;2023-07-02T05:32:26;11.07;;;8.02;;
11677;SDS011;5895;41.950;24.372;2023-07-02T05:34:53;12.63;;;7.85;;
11677;SDS011;5895;41.950;24.372;2023-07-02T05:37:20;15.55;;;10.20;;
11677;SDS011;5895;41.950;24.372;2023-07-02T05:39:48;11.68;;;10.10;;
11677;SDS011;5895;41.950;24.372;2023-07-02T05:42:15;17.23;;;12.20;;
11677;SDS011;5895;41.950;24.372;2023-07-02T05:44:44;12.63;;;11.35;;
11677;SDS011;5895;41.950;24.372;2023-07-02T05:47:12;11.52;;;9.85;;
11677;SDS011;5895;41.950;24.372;2023-07-02T05:49:40;9.88;;;7.95;;
11677;SDS011;5895;41.950;24.372;2023-07-02T05:52:08;10.00;;;8.13;;
11677;SDS011;5895;41.950;24.372;2023-07-02T05:54:38;11.45;;;8.80;;
11677;SDS011;5895;41.950;24.372;2023-07-02T05:57:06;12.20;;;10.43;;
11677;SDS011;5895;41.950;24.372;2023-07-02T05:59:33;14.63;;;13.13;;
11677;SDS011;5895;41.950;24.372;2023-07-02T06:02:03;12.13;;;10.65;;
11677;SDS011;5895;41.950;24.372;2023-07-02T06:04:30;9.38;;;7.88;;
11677;SDS011;5895;41.950;24.372;2023-07-02T06:06:57;9.55;;;8.55;;
11677;SDS011;5895;41.950;24.372;2023-07-02T06:09:25;9.30;;;7.60;;
11677;SDS011;5895;41.950;24.372;2023-07-02T06:11:52;10.90;;;7.72;;
11677;SDS011;5895;41.950;24.372;2023-07-02T06:14:20;9.15;;;7.90;;
11677;SDS011;5895;41.950;24.372;2023-07-02T06:16:50;7.68;;;6.50;;
11677;SDS011;5895;41.950;24.372;2023-07-02T06:19:19;6.85;;;5.75;;
11677;SDS011;5895;41.950;24.372;2023-07-02T06:21:47;7.68;;;5.43;;
11677;SDS011;5895;41.950;24.372;2023-07-02T06:24:14;6.85;;;5.82;;
11677;SDS011;5895;41.950;24.372;2023-07-02T06:26:42;7.53;;;5.63;;
11677;SDS011;5895;41.950;24.372;2023-07-02T06:29:09;5.32;;;4.70;;
11677;SDS011;5895;41.950;24.372;2023-07-02T06:31:37;7.43;;;5.28;;
11677;SDS011;5895;41.950;24.372;2023-07-02T06:34:04;7.65;;;5.25;;
11677;SDS011;5895;41.950;24.372;2023-07-02T06:36:35;7.32;;;5.03;;
11677;SDS011;5895;41.950;24.372;2023-07-02T06:39:02;5.90;;;5.10;;
11677;SDS011;5895;41.950;24.372;2023-07-02T06:41:30;5.18;;;4.47;;
11677;SDS011;5895;41.950;24.372;2023-07-02T06:43:57;4.53;;;4.13;;
11677;SDS011;5895;41.950;24.372;2023-07-02T06:46:25;4.05;;;3.65;;
11677;SDS011;5895;41.950;24.372;2023-07-02T06:48:52;4.15;;;3.55;;
11677;SDS011;5895;41.950;24.372;2023-07-02T06:51:19;4.90;;;3.60;;
11677;SDS011;5895;41.950;24.372;2023-07-02T06:53:48;3.40;;;3.10;;
11677;SDS011;5895;41.950;24.372;2023-07-02T06:56:16;3.70;;;2.90;;
11677;SDS011;5895;41.950;24.372;2023-07-02T06:58:43;3.35;;;2.85;;
11677;SDS011;5895;41.950;24.372;2023-07-02T07:01:11;4.45;;;2.90;;
11677;SDS011;5895;41.950;24.372;2023-07-02T07:03:38;3.72;;;3.33;;
11677;SDS011;5895;41.950;24.372;2023-07-02T07:06:06;3.55;;;2.83;;
11677;SDS011;5895;41.950;24.372;2023-07-02T07:08:33;3.00;;;2.70;;
11677;SDS011;5895;41.950;24.372;2023-07-02T07:11:06;3.33;;;3.03;;
11677;SDS011;5895;41.950;24.372;2023-07-02T07:13:33;2.75;;;2.50;;
11677;SDS011;5895;41.950;24.372;2023-07-02T07:16:00;2.90;;;2.63;;
11677;SDS011;5895;41.950;24.372;2023-07-02T07:18:28;4.40;;;3.10;;
11677;SDS011;5895;41.950;24.372;2023-07-02T07:20:55;2.67;;;2.47;;
11677;SDS011;5895;41.950;24.372;2023-07-02T07:23:23;3.92;;;3.40;;
11677;SDS011;5895;41.950;24.372;2023-07-02T07:25:50;6.53;;;5.45;;
11677;SDS011;5895;41.950;24.372;2023-07-02T07:28:21;6.40;;;5.43;;
11677;SDS011;5895;41.950;24.372;2023-07-02T07:30:51;7.00;;;5.78;;
11677;SDS011;5895;41.950;24.372;2023-07-02T07:33:19;8.40;;;6.63;;
11677;SDS011;5895;41.950;24.372;2023-07-02T07:35:46;8.10;;;5.90;;
11677;SDS011;5895;41.950;24.372;2023-07-02T07:38:14;9.05;;;6.40;;
11677;SDS011;5895;41.950;24.372;2023-07-02T07:40:42;8.18;;;6.95;;
11677;SDS011;5895;41.950;24.372;2023-07-02T07:43:10;8.73;;;6.53;;
11677;SDS011;5895;41.950;24.372;2023-07-02T07:45:39;9.65;;;6.57;;
11677;SDS011;5895;41.950;24.372;2023-07-02T07:48:07;8.80;;;7.38;;
11677;SDS011;5895;41.950;24.372;2023-07-02T07:50:34;7.75;;;6.22;;
11677;SDS011;5895;41.950;24.372;2023-07-02T07:53:02;7.50;;;6.45;;
11677;SDS011;5895;41.950;24.372;2023-07-02T07:55:29;8.50;;;6.63;;
11677;SDS011;5895;41.950;24.372;2023-07-02T07:57:56;7.85;;;6.75;;
11677;SDS011;5895;41.950;24.372;2023-07-02T08:00:24;8.73;;;7.25;;
11677;SDS011;5895;41.950;24.372;2023-07-02T08:02:53;9.95;;;7.35;;
11677;SDS011;5895;41.950;24.372;2023-07-02T08:05:22;7.68;;;6.40;;
11677;SDS011;5895;41.950;24.372;2023-07-02T08:07:49;9.95;;;7.57;;
11677;SDS011;5895;41.950;24.372;2023-07-02T08:10:18;7.20;;;6.53;;
11677;SDS011;5895;41.950;24.372;2023-07-02T08:12:46;8.73;;;7.05;;
11677;SDS011;5895;41.950;24.372;2023-07-02T08:15:14;9.05;;;6.50;;
11677;SDS011;5895;41.950;24.372;2023-07-02T08:17:42;7.65;;;6.85;;
11677;SDS011;5895;41.950;24.372;2023-07-02T08:20:11;7.97;;;6.75;;
11677;SDS011;5895;41.950;24.372;2023-07-02T08:22:38;8.63;;;6.95;;
11677;SDS011;5895;41.950;24.372;2023-07-02T08:25:07;7.75;;;6.95;;
11677;SDS011;5895;41.950;24.372;2023-07-02T08:27:34;8.90;;;7.32;;
11677;SDS011;5895;41.950;24.372;2023-07-02T08:30:02;10.27;;;7.00;;
11677;SDS011;5895;41.950;24.372;2023-07-02T08:32:30;8.05;;;7.25;;
11677;SDS011;5895;41.950;24.372;2023-07-02T08:34:58;7.70;;;6.82;;
11677;SDS011;5895;41.950;24.372;2023-07-02T08:37:27;8.10;;;6.82;;
11677;SDS011;5895;41.950;24.372;2023-07-02T08:39:55;7.72;;;6.93;;
11677;SDS011;5895;41.950;24.372;2023-07-02T08:42:22;9.90;;;6.85;;
11677;SDS011;5895;41.950;24.372;2023-07-02T08:44:54;11.07;;;6.97;;
11677;SDS011;5895;41.950;24.372;2023-07-02T08:47:23;9.43;;;7.20;;
11677;SDS011;5895;41.950;24.372;2023-07-02T08:49:51;8.68;;;7.32;;
11677;SDS011;5895;41.950;24.372;2023-07-02T08:52:19;8.50;;;6.72;;
11677;SDS011;5895;41.950;24.372;2023-07-02T08:54:48;8.43;;;7.53;;
11677;SDS011;5895;41.950;24.372;2023-07-02T08:57:15;8.00;;;7.07;;
11677;SDS011;5895;41.950;24.372;2023-07-02T08:59:43;9.13;;;7.20;;
11677;SDS011;5895;41.950;24.372;2023-07-02T09:02:11;8.55;;;7.15;;
11677;SDS011;5895;41.950;24.372;2023-07-02T09:04:39;9.25;;;7.47;;
11677;SDS011;5895;41.950;24.372;2023-07-02T09:07:07;7.93;;;7.13;;
11677;SDS011;5895;41.950;24.372;2023-07-02T09:09:44;8.38;;;7.40;;
11677;SDS011;5895;41.950;24.372;2023-07-02T09:12:23;9.88;;;7.50;;
11677;SDS011;5895;41.950;24.372;2023-07-02T09:14:55;8.73;;;7.03;;
11677;SDS011;5895;41.950;24.372;2023-07-02T09:17:26;10.23;;;9.10;;
11677;SDS011;5895;41.950;24.372;2023-07-02T09:19:55;7.60;;;6.80;;
11677;SDS011;5895;41.950;24.372;2023-07-02T09:22:25;8.27;;;7.05;;
11677;SDS011;5895;41.950;24.372;2023-07-02T09:24:54;9.25;;;7.68;;
11677;SDS011;5895;41.950;24.372;2023-07-02T09:27:34;8.88;;;7.97;;
11677;SDS011;5895;41.950;24.372;2023-07-02T09:30:07;10.50;;;7.43;;
11677;SDS011;5895;41.950;24.372;2023-07-02T09:32:36;8.75;;;7.45;;
11677;SDS011;5895;41.950;24.372;2023-07-02T09:35:04;9.00;;;8.10;;
11677;SDS011;5895;41.950;24.372;2023-07-02T09:37:32;11.27;;;7.78;;
11677;SDS011;5895;41.950;24.372;2023-07-02T09:40:00;10.80;;;7.90;;
11677;SDS011;5895;41.950;24.372;2023-07-02T09:42:30;8.40;;;7.60;;
11677;SDS011;5895;41.950;24.372;2023-07-02T09:45:01;10.07;;;7.32;;
11677;SDS011;5895;41.950;24.372;2023-07-02T09:47:32;11.35;;;7.80;;
11677;SDS011;5895;41.950;24.372;2023-07-02T09:50:06;15.50;;;11.90;;
11677;SDS011;5895;41.950;24.372;2023-07-02T09:52:33;18.23;;;12.88;;
11677;SDS011;5895;41.950;24.372;2023-07-02T09:55:02;18.20;;;11.88;;
11677;SDS011;5895;41.950;24.372;2023-07-02T09:57:30;12.98;;;10.40;;
11677;SDS011;5895;41.950;24.372;2023-07-02T09:59:58;8.95;;;8.05;;
11677;SDS011;5895;41.950;24.372;2023-07-02T10:02:28;10.32;;;7.25;;
11677;SDS011;5895;41.950;24.372;2023-07-02T10:04:56;10.07;;;6.75;;
11677;SDS011;5895;41.950;24.372;2023-07-02T10:07:26;9.43;;;7.75;;
11677;SDS011;5895;41.950;24.372;2023-07-02T10:09:55;12.50;;;9.45;;
11677;SDS011;5895;41.950;24.372;2023-07-02T10:12:23;9.82;;;8.18;;
11677;SDS011;5895;41.950;24.372;2023-07-02T10:14:51;9.73;;;7.93;;
11677;SDS011;5895;41.950;24.372;2023-07-02T10:17:24;9.52;;;8.40;;
11677;SDS011;5895;41.950;24.372;2023-07-02T10:19:55;13.02;;;10.40;;
11677;SDS011;5895;41.950;24.372;2023-07-02T10:22:23;10.48;;;9.30;;
11677;SDS011;5895;41.950;24.372;2023-07-02T10:24:51;7.78;;;6.97;;
11677;SDS011;5895;41.950;24.372;2023-07-02T10:27:37;10.70;;;7.97;;
11677;SDS011;5895;41.950;24.372;2023-07-02T10:30:06;9.35;;;8.20;;
11677;SDS011;5895;41.950;24.372;2023-07-02T10:32:35;8.50;;;7.60;;
11677;SDS011;5895;41.950;24.372;2023-07-02T10:35:14;9.15;;;7.70;;
11677;SDS011;5895;41.950;24.372;2023-07-02T10:37:42;10.00;;;7.85;;
11677;SDS011;5895;41.950;24.372;2023-07-02T10:40:11;8.50;;;7.40;;
11677;SDS011;5895;41.950;24.372;2023-07-02T10:42:45;8.45;;;7.13;;
11677;SDS011;5895;41.950;24.372;2023-07-02T10:45:13;8.45;;;7.60;;
11677;SDS011;5895;41.950;24.372;2023-07-02T10:47:41;10.52;;;7.60;;
11677;SDS011;5895;41.950;24.372;2023-07-02T10:50:29;8.95;;;7.75;;
11677;SDS011;5895;41.950;24.372;2023-07-02T10:53:03;8.57;;;7.38;;
11677;SDS011;5895;41.950;24.372;2023-07-02T10:55:33;11.18;;;9.63;;
11677;SDS011;5895;41.950;24.372;2023-07-02T10:58:02;21.67;;;15.88;;
11677;SDS011;5895;41.950;24.372;2023-07-02T11:00:31;25.55;;;16.92;;
11677;SDS011;5895;41.950;24.372;2023-07-02T11:02:59;9.75;;;8.73;;
11677;SDS011;5895;41.950;24.372;2023-07-02T11:05:28;12.15;;;10.95;;
11677;SDS011;5895;41.950;24.372;2023-07-02T11:08:07;14.25;;;10.70;;
11677;SDS011;5895;41.950;24.372;2023-07-02T11:10:35;15.80;;;11.40;;
11677;SDS011;5895;41.950;24.372;2023-07-02T11:13:09;9.65;;;8.70;;
11677;SDS011;5895;41.950;24.372;2023-07-02T11:15:37;8.95;;;7.82;;
11677;SDS011;5895;41.950;24.372;2023-07-02T11:18:10;10.13;;;7.40;;
11677;SDS011;5895;41.950;24.372;2023-07-02T11:20:39;9.48;;;7.57;;
11677;SDS011;5895;41.950;24.372;2023-07-02T11:23:16;10.00;;;7.40;;
11677;SDS011;5895;41.950;24.372;2023-07-02T11:25:54;8.05;;;6.80;;
11677;SDS011;5895;41.950;24.372;2023-07-02T11:28:22;8.82;;;7.13;;
11677;SDS011;5895;41.950;24.372;2023-07-02T11:30:50;9.75;;;6.90;;
11677;SDS011;5895;41.950;24.372;2023-07-02T11:33:17;8.48;;;7.55;;
11677;SDS011;5895;41.950;24.372;2023-07-02T11:35:46;10.32;;;7.15;;
11677;SDS011;5895;41.950;24.372;2023-07-02T11:38:13;7.70;;;7.00;;
11677;SDS011;5895;41.950;24.372;2023-07-02T11:40:41;7.95;;;7.15;;
11677;SDS011;5895;41.950;24.372;2023-07-02T11:43:08;7.90;;;7.00;;
11677;SDS011;5895;41.950;24.372;2023-07-02T11:45:36;8.18;;;7.38;;
11677;SDS011;5895;41.950;24.372;2023-07-02T11:48:03;8.25;;;6.95;;
11677;SDS011;5895;41.950;24.372;2023-07-02T11:50:30;8.00;;;7.20;;
11677;SDS011;5895;41.950;24.372;2023-07-02T11:52:59;8.63;;;7.40;;
11677;SDS011;5895;41.950;24.372;2023-07-02T11:55:28;9.55;;;7.15;;
11677;SDS011;5895;41.950;24.372;2023-07-02T11:57:55;7.90;;;7.20;;
11677;SDS011;5895;41.950;24.372;2023-07-02T12:00:22;8.32;;;7.25;;
11677;SDS011;5895;41.950;24.372;2023-07-02T12:02:51;7.82;;;6.80;;
11677;SDS011;5895;41.950;24.372;2023-07-02T12:05:18;11.07;;;7.03;;
11677;SDS011;5895;41.950;24.372;2023-07-02T12:07:46;9.93;;;7.60;;
11677;SDS011;5895;41.950;24.372;2023-07-02T12:10:14;9.43;;;7.63;;
11677;SDS011;5895;41.950;24.372;2023-07-02T12:12:42;8.00;;;7.20;;
11677;SDS011;5895;41.950;24.372;2023-07-02T12:15:09;8.25;;;7.10;;
11677;SDS011;5895;41.950;24.372;2023-07-02T12:17:37;6.43;;;5.35;;
11677;SDS011;5895;41.950;24.372;2023-07-02T12:20:04;7.18;;;6.47;;
11677;SDS011;5895;41.950;24.372;2023-07-02T12:22:32;7.47;;;6.20;;
11677;SDS011;5895;41.950;24.372;2023-07-02T12:25:00;8.90;;;6.05;;
11677;SDS011;5895;41.950;24.372;2023-07-02T12:27:29;8.82;;;5.85;;
11677;SDS011;5895;41.950;24.372;2023-07-02T12:29:56;7.53;;;5.40;;
11677;SDS011;5895;41.950;24.372;2023-07-02T12:32:24;5.75;;;5.13;;
11677;SDS011;5895;41.950;24.372;2023-07-02T12:34:51;6.10;;;5.13;;
11677;SDS011;5895;41.950;24.372;2023-07-02T12:37:18;5.78;;;4.60;;
11677;SDS011;5895;41.950;24.372;2023-07-02T12:39:46;5.80;;;5.20;;
11677;SDS011;5895;41.950;24.372;2023-07-02T12:42:13;5.95;;;4.78;;
11677;SDS011;5895;41.950;24.372;2023-07-02T12:44:42;5.55;;;4.53;;
11677;SDS011;5895;41.950;24.372;2023-07-02T12:47:09;5.30;;;4.80;;
11677;SDS011;5895;41.950;24.372;2023-07-02T12:49:37;5.57;;;5.07;;
11677;SDS011;5895;41.950;24.372;2023-07-02T12:52:06;6.13;;;5.50;;
11677;SDS011;5895;41.950;24.372;2023-07-02T12:54:33;6.57;;;5.72;;
11677;SDS011;5895;41.950;24.372;2023-07-02T12:57:01;6.20;;;4.75;;
11677;SDS011;5895;41.950;24.372;2023-07-02T12:59:28;5.55;;;4.72;;
11677;SDS011;5895;41.950;24.372;2023-07-02T13:01:57;6.35;;;4.75;;
11677;SDS011;5895;41.950;24.372;2023-07-02T13:04:24;6.53;;;4.75;;
11677;SDS011;5895;41.950;24.372;2023-07-02T13:06:52;5.82;;;4.97;;
11677;SDS011;5895;41.950;24.372;2023-07-02T13:09:19;5.88;;;4.60;;
11677;SDS011;5895;41.950;24.372;2023-07-02T13:11:46;4.93;;;4.43;;
11677;SDS011;5895;41.950;24.372;2023-07-02T13:14:14;4.88;;;4.38;;
11677;SDS011;5895;41.950;24.372;2023-07-02T13:16:42;4.82;;;4.32;;
11677;SDS011;5895;41.950;24.372;2023-07-02T13:19:11;4.80;;;4.15;;
11677;SDS011;5895;41.950;24.372;2023-07-02T13:21:40;4.47;;;4.07;;
11677;SDS011;5895;41.950;24.372;2023-07-02T13:24:07;5.57;;;4.47;;
11677;SDS011;5895;41.950;24.372;2023-07-02T13:26:36;4.72;;;4.32;;
11677;SDS011;5895;41.950;24.372;2023-07-02T13:29:06;5.32;;;4.05;;
11677;SDS011;5895;41.950;24.372;2023-07-02T13:31:33;5.50;;;4.93;;
11677;SDS011;5895;41.950;24.372;2023-07-02T13:34:01;8.15;;;6.38;;
11677;SDS011;5895;41.950;24.372;2023-07-02T13:36:30;8.32;;;5.60;;
11677;SDS011;5895;41.950;24.372;2023-07-02T13:38:57;7.25;;;4.80;;
11677;SDS011;5895;41.950;24.372;2023-07-02T13:41:25;6.68;;;5.63;;
11677;SDS011;5895;41.950;24.372;2023-07-02T13:43:55;7.43;;;5.55;;
11677;SDS011;5895;41.950;24.372;2023-07-02T13:46:27;7.78;;;6.50;;
11677;SDS011;5895;41.950;24.372;2023-07-02T13:48:58;8.98;;;8.07;;
11677;SDS011;5895;41.950;24.372;2023-07-02T13:51:25;8.63;;;7.18;;
11677;SDS011;5895;41.950;24.372;2023-07-02T13:53:55;9.48;;;7.18;;
11677;SDS011;5895;41.950;24.372;2023-07-02T13:56:23;7.72;;;7.03;;
11677;SDS011;5895;41.950;24.372;2023-07-02T13:59:04;8.63;;;7.82;;
11677;SDS011;5895;41.950;24.372;2023-07-02T14:01:32;9.05;;;7.13;;
11677;SDS011;5895;41.950;24.372;2023-07-02T14:04:00;8.05;;;7.22;;
11677;SDS011;5895;41.950;24.372;2023-07-02T14:06:27;8.75;;;7.65;;
11677;SDS011;5895;41.950;24.372;2023-07-02T14:08:55;7.70;;;6.90;;
11677;SDS011;5895;41.950;24.372;2023-07-02T14:11:22;14.02;;;7.80;;
11677;SDS011;5895;41.950;24.372;2023-07-02T14:13:51;8.68;;;7.40;;
11677;SDS011;5895;41.950;24.372;2023-07-02T14:16:19;8.57;;;7.68;;
11677;SDS011;5895;41.950;24.372;2023-07-02T14:18:47;8.60;;;6.85;;
11677;SDS011;5895;41.950;24.372;2023-07-02T14:21:14;7.78;;;5.90;;
11677;SDS011;5895;41.950;24.372;2023-07-02T14:23:42;11.82;;;7.97;;
11677;SDS011;5895;41.950;24.372;2023-07-02T14:26:10;10.88;;;8.90;;
11677;SDS011;5895;41.950;24.372;2023-07-02T14:28:38;11.38;;;9.23;;
11677;SDS011;5895;41.950;24.372;2023-07-02T14:31:05;12.55;;;10.77;;
11677;SDS011;5895;41.950;24.372;2023-07-02T14:33:35;13.63;;;11.65;;
11677;SDS011;5895;41.950;24.372;2023-07-02T14:36:04;13.60;;;11.05;;
11677;SDS011;5895;41.950;24.372;2023-07-02T14:38:32;11.95;;;10.20;;
11677;SDS011;5895;41.950;24.372;2023-07-02T14:41:00;9.80;;;8.80;;
11677;SDS011;5895;41.950;24.372;2023-07-02T14:43:28;10.65;;;9.52;;
11677;SDS011;5895;41.950;24.372;2023-07-02T14:45:57;8.10;;;6.90;;
11677;SDS011;5895;41.950;24.372;2023-07-02T14:48:26;7.18;;;6.47;;
11677;SDS011;5895;41.950;24.372;2023-07-02T14:50:55;7.65;;;6.50;;
11677;SDS011;5895;41.950;24.372;2023-07-02T14:53:24;6.95;;;5.60;;
11677;SDS011;5895;41.950;24.372;2023-07-02T14:55:53;7.03;;;6.05;;
11677;SDS011;5895;41.950;24.372;2023-07-02T14:58:22;6.38;;;5.78;;
11677;SDS011;5895;41.950;24.372;2023-07-02T15:00:55;7.47;;;6.78;;
11677;SDS011;5895;41.950;24.372;2023-07-02T15:03:24;6.85;;;6.15;;